Abu Dhabi, UAE

3:34 PM GST on July 23, 2014 (GMT +0400)
Abu Dhabi International (OMAA) Elev 89 ft | 24.43 °N, 54.65 °E | Change Station

Current weather conditions updated 34 minutes ago

Clear
Clear
100 °F
Feels Like 109 °F
N
23
Wind Variable Wind from West

Today is forecast to be nearly the same temperature as yesterday.

Today
High -- | Low -- °F
--% Chance of Precip.
Yesterday
High -- | Low -- °F
Precip. -- in
5:45 AM 7:09 PM
Waning Crescent, 11% visible
Pressure 29.39 in
Visibility 5.0 miles
Clouds
Heat Index 109 °F
Dew Point 72 °F
Humidity 39%
Rainfall 0.00 in
Snow Depth Not available.
UV Not available.
Pollen Not available.
Air Quality Not available.
Flu Activity Not available.
METAR OMAA 231100Z 28020KT 8000 NSC 38/22 Q0995 A2940 NOSIG

More Conditions Fewer Conditions

Pressure 29.39 in
Visibility 5.0 miles
Clouds
Heat Index 109 °F
Dew Point 72 °F
Humidity 39%
Rainfall 0.00 in
Snow Depth Not available.
UV Not available.
Pollen Not available.
Air Quality Not available.
Flu Activity Not available.
METAR OMAA 231100Z 28020KT 8000 NSC 38/22 Q0995 A2940 NOSIG

More Conditions Fewer Conditions

10-Day Weather Forecast

Almanac

Astronomy

Jul. 23, 2014 Rise Set
Actual Time 5:45 AM GST 7:09 PM GST
Civil Twilight 5:20 AM GST 7:34 PM GST
Nautical Twilight 4:51 AM GST 8:04 PM GST
Astronomical Twilight 4:20 AM GST 8:34 PM GST
Moon 2:43 AM GST 4:20 PM GST
Length of Visible Light 14h 13m
Length of Day
13h 24m
Tomorrow will be 0m 53s shorter.
Waning Crescent, 11% of the Moon is Illuminated
Today
Waning Crescent
Jul 26
New
Aug 3
First Quarter
Aug 10
Full
Aug 17
Last Quarter

Yesterday's Extremes

Country Highs Country Lows

Community

WunderPhotos

Upload Photos

1,736,560 photos uploaded!

Nearby

Snow Depth

Not available.

Earthquake Activity

City Distance Mag. Time & Date
No recent earthquake activity has been reported nearby.
Minimum magnitude displayed is 2.5.

Coastal Water Temperatures

Place Temperature
No Stations Reporting

Nearby Weather Stations

Station Location Temp. Heat Index Dew Point Humidity Wind Precip. Elev Updated Type
Khalifa City A, Abu Dhabi 106.9 °F 115 °F 68 °F 29% NW  at  17.4 mph 0.00 in / hr 0 ft 3:33 PM GST Rapid Fire
Bel Ghailam island, %u0627%u0644%u0625%u0645%u0627%u0631%u0627%u062A %u0627%u0644%u0639%u0631%u0628%%U0627%U0644%U0625%U0645%U0627%U0631%U0627%U062A %U0627%U0644%U0639%U0631%U0628%96.1 96.1 °F 118 °F 81 °F 62% WNW  at  14.0 mph 0.00 in / hr 56 ft 3:32 PM GST Rapid Fire

Show More Stations Show Fewer Stations